• Join FlightAware (Why Join?)
  • Login
  • US Flag 
08:03AM EDT


 

Airport Tracker/Info


-or-


 

Live Flight TrackerFlight Track Log ✈ N789EX ✈ 20-Jun-2014 ✈ KMWH - KBFI

Flight Track Log - Related Links

Times and Time Zones

All times are in EDT time to prevent confusion due to time zone crossing. See the N789EX flight status page for this flight to view local times or setup timezone preferences in your user account.

Time Position Orientation Groundspeed Altitude Reporting Facility
EDT Latitude Longitude Course Direction KTS MPH feet Rate Location/Type
06:08PM 47.1364 -119.2683 154° Southeast 216 249 7,200  Level Seattle Center
06:09PM 47.1114 -119.1653 110° East 277 319 10,500 2,760 Climbing Seattle Center
06:10PM 47.0778 -119.0144 108° East 379 436 12,900 1,200 Climbing Seattle Center
06:11PM 47.0433 -118.8508 107° East 418 481 13,000 1,740 Climbing Seattle Center
06:12PM 47.0078 -118.6908 108° East 418 481 16,500 3,360 Climbing Seattle Center
06:13PM 46.9767 -118.5578 109° East 403 464 20,000 2,340 Climbing Seattle Center
06:14PM 46.9425 -118.3947 107° East 423 487 21,400 1,440 Climbing Seattle Center
06:15PM 46.8950 -118.1831 108° East 460 529 23,000 1,800 Climbing Seattle Center
06:16PM 46.8558 -118.0117 108° East 451 519 25,100 1,680 Climbing Seattle Center
06:22PM 46.3957 -117.7245 232° Southwest 418 481 35,000 1,500 Climbing FlightAware ADS-B (KBOI)
06:22PM 46.3699 -117.7705 231° Southwest 420 483 35,000  Level FlightAware ADS-B (KBOI)
06:23PM 46.3151 -117.8677 232° Southwest 422 486 35,000  Level FlightAware ADS-B (KBOI)
06:23PM 46.2987 -117.9125 238° Southwest 420 483 35,000  Level FlightAware ADS-B (KBOI)
06:24PM 46.2996 -118.0189 281° West 428 493 35,000  Level FlightAware ADS-B (KBOI)
06:25PM 46.3260 -118.2362 281° West 429 494 35,000  Level FlightAware ADS-B (KBOI)
06:26PM 46.3405 -118.3559 280° West 429 494 35,000  Level FlightAware ADS-B (KBOI)
06:26PM 46.3503 -118.4382 280° West 429 494 35,000  Level FlightAware ADS-B (KBOI)
06:27PM 46.3603 -118.5229 280° West 429 494 35,000  Level FlightAware ADS-B (KBOI)
06:27PM 46.3684 -118.5913 280° West 428 493 35,000  Level FlightAware ADS-B (KBOI)
06:28PM 46.3783 -118.6769 280° West 427 491 35,000  Level FlightAware ADS-B (KBOI)
06:30PM 46.4272 -119.1028 279° West 420 483 35,000  Level FlightAware ADS-B
06:31PM 46.4398 -119.2140 279° West 417 480 35,000  Level FlightAware ADS-B
06:31PM 46.4407 -119.2220 279° West 417 480 35,000  Level FlightAware ADS-B (KPFC)
06:32PM 46.4545 -119.3470 279° West 417 480 35,000  Level FlightAware ADS-B
06:32PM 46.4577 -119.3756 279° West 419 482 35,000  Level FlightAware ADS-B (KPFC)
06:32PM 46.4643 -119.4360 279° West 419 482 35,000  Level FlightAware ADS-B
06:33PM 46.4665 -119.4553 279° West 418 481 35,000  Level FlightAware ADS-B
06:33PM 46.4844 -119.6205 279° West 418 481 35,000  Level FlightAware ADS-B (KPFC)
06:34PM 46.4938 -119.7077 279° West 417 480 35,000  Level FlightAware ADS-B
06:34PM 46.4960 -119.7281 279° West 416 479 35,000  Level FlightAware ADS-B
06:35PM 46.5140 -119.8990 279° West 415 478 35,000  Level FlightAware ADS-B
06:35PM 46.5228 -119.9830 279° West 415 478 35,000  Level FlightAware ADS-B
06:36PM 46.5330 -120.0799 278° West 415 478 35,000  Level FlightAware ADS-B (KPFC)
06:36PM 46.5408 -120.1553 277° West 417 480 35,000  Level FlightAware ADS-B (KPFC)
06:37PM 46.5473 -120.2180 279° West 418 481 35,000  Level FlightAware ADS-B
06:37PM 46.5555 -120.2981 277° West 416 479 35,000  Level FlightAware ADS-B (KPFC)
06:37PM 46.5574 -120.3170 278° West 417 480 35,000  Level FlightAware ADS-B
06:38PM 46.5638 -120.3800 277° West 418 481 35,000  Level FlightAware ADS-B (KPFC)
06:38PM 46.5648 -120.3900 279° West 418 481 35,000  Level FlightAware ADS-B
06:38PM 46.5689 -120.4160 285° West 419 482 35,000  Level FlightAware ADS-B
06:38PM 46.5747 -120.4410 291° West 420 483 35,000  Level FlightAware ADS-B
06:38PM 46.5828 -120.4670 297° West 421 484 35,000  Level FlightAware ADS-B
06:38PM 46.5913 -120.4885 300° West 423 487 35,000  Level FlightAware ADS-B
06:39PM 46.5984 -120.5040 305° West 425 489 35,000 -840 Level FlightAware ADS-B
06:39PM 46.6326 -120.5750 305° West 423 487 34,500 -2,760 Descending FlightAware ADS-B
06:40PM 46.6675 -120.6480 305° West 435 501 32,200 -3,900 Descending FlightAware ADS-B
06:40PM 46.6916 -120.6987 305° West 436 502 30,600 -3,300 Descending FlightAware ADS-B
06:40PM 46.7030 -120.7230 305° West 435 501 30,500 -1,560 Descending FlightAware ADS-B
06:41PM 46.7399 -120.8010 305° West 421 484 29,700 -1,500 Descending FlightAware ADS-B
06:41PM 46.7448 -120.8109 305° West 420 483 29,600 -2,160 Descending FlightAware ADS-B
06:41PM 46.7736 -120.8720 305° West 421 484 28,600 -2,160 Descending FlightAware ADS-B
06:41PM 46.7561 -120.8348 305° West 413 475 28,300 -2,040 Descending FlightAware ADS-B
06:42PM 46.8052 -120.9390 305° West 396 456 27,600 -1,980 Descending FlightAware ADS-B
06:42PM 46.8165 -120.9626 304° West 392 451 27,300 -2,040 Descending FlightAware ADS-B (KPAE)
06:42PM 46.8358 -121.0040 304° West 389 448 26,600 -2,100 Descending FlightAware ADS-B
06:42PM 46.8517 -121.0381 304° West 383 441 26,100 -1,980 Descending FlightAware ADS-B (KPFC)
06:43PM 46.8668 -121.0700 305° West 383 441 25,600 -2,040 Descending FlightAware ADS-B
06:43PM 46.8759 -121.0893 305° West 386 444 24,800 -2,040 Descending FlightAware ADS-B (KPAE)
06:43PM 46.8971 -121.1340 304° West 390 449 24,600 -2,220 Descending FlightAware ADS-B
06:44PM 46.9252 -121.1946 304° West 401 461 23,600 -2,220 Descending FlightAware ADS-B (KPFC)
06:44PM 46.9283 -121.2010 304° West 400 460 23,500 -2,160 Descending FlightAware ADS-B
06:44PM 46.9598 -121.2690 304° West 393 452 22,400 -2,280 Descending FlightAware ADS-B
06:45PM 46.9904 -121.3350 304° West 387 445 21,200 -2,100 Descending FlightAware ADS-B
06:45PM 47.0210 -121.4000 304° West 381 438 20,300 -1,320 Descending FlightAware ADS-B
06:46PM 47.0418 -121.4452 304° West 362 417 20,100 -600 Descending FlightAware ADS-B (KPAE)
06:46PM 47.0496 -121.4620 304° West 355 409 20,000 -660 Descending FlightAware ADS-B
06:46PM 47.0763 -121.5200 304° West 338 389 19,700 -780 Descending FlightAware ADS-B
06:46PM 47.0763 -121.5199 304° West 338 389 19,600 -1,800 Descending FlightAware ADS-B (KPAE)
06:47PM 47.1026 -121.5770 304° West 334 384 18,800 -1,740 Descending FlightAware ADS-B
06:47PM 47.1102 -121.5938 304° West 334 384 18,300 -1,620 Descending FlightAware ADS-B (CYVR)
06:47PM 47.1286 -121.6340 304° West 331 381 18,000 -1,680 Descending FlightAware ADS-B
06:48PM 47.1438 -121.6672 304° West 325 374 17,400 -2,400 Descending FlightAware ADS-B (KPFC)
06:48PM 47.1537 -121.6890 304° West 319 367 16,800 -2,460 Descending FlightAware ADS-B
06:48PM 47.1788 -121.7430 304° West 320 368 15,700 -2,100 Descending FlightAware ADS-B
06:48PM 47.1827 -121.7520 304° West 323 372 15,600 -1,560 Descending FlightAware ADS-B (KPAE)
06:49PM 47.2040 -121.7980 304° West 319 367 14,900 -1,440 Descending FlightAware ADS-B
06:49PM 47.2233 -121.8404 304° West 315 362 14,400 -1,080 Descending FlightAware ADS-B (KPAE)
06:49PM 47.2281 -121.8510 304° West 314 361 14,400 -900 Level FlightAware ADS-B
06:50PM 47.2526 -121.9050 304° West 308 354 13,900 -1,020 Descending FlightAware ADS-B
06:50PM 47.2563 -121.9131 304° West 308 354 13,800 -1,020 Descending FlightAware ADS-B (KPAE)
06:50PM 47.2766 -121.9580 303° West 308 354 13,400 -960 Descending FlightAware ADS-B
06:50PM 47.2812 -121.9678 304° West 308 354 13,300 -840 Descending FlightAware ADS-B (KPAE)
06:51PM 47.3002 -122.0100 304° West 306 352 13,000 -960 Descending FlightAware ADS-B
06:51PM 47.3133 -122.0390 303° West 307 353 12,700 -960 Descending FlightAware ADS-B (KPAE)
06:51PM 47.3247 -122.0640 304° West 308 354 12,500 -1,740 Descending FlightAware ADS-B
06:52PM 47.3378 -122.0932 304° West 314 361 11,800 -2,220 Descending FlightAware ADS-B (KPAE)
06:52PM 47.3489 -122.1180 304° West 315 362 11,400 -1,920 Descending FlightAware ADS-B
06:52PM 47.3592 -122.1410 301° West 307 353 11,000 -1,740 Descending FlightAware ADS-B
06:52PM 47.3691 -122.1671 298° West 298 343 10,600 -1,680 Descending FlightAware ADS-B (KPAE)
06:52PM 47.3712 -122.1730 297° West 296 341 10,500 -2,040 Descending FlightAware ADS-B
06:53PM 47.3804 -122.2000 298° West 289 333 10,000 -1,800 Descending FlightAware ADS-B
06:53PM 47.3802 -122.1991 298° West 289 333 10,000 -840 Level FlightAware ADS-B (KPAE)
06:53PM 47.3902 -122.2260 300° West 284 327 9,800 -600 Descending FlightAware ADS-B
06:53PM 47.3949 -122.2377 300° West 280 322 9,800  Level FlightAware ADS-B (KPAE)
06:53PM 47.3974 -122.2440 300° West 279 321 9,800 -1,320 Level FlightAware ADS-B
06:53PM 47.4072 -122.2700 299° West 277 319 9,400 -1,560 Descending FlightAware ADS-B
06:53PM 47.4166 -122.2950 299° West 277 319 9,000 -1,440 Descending FlightAware ADS-B
06:54PM 47.4196 -122.3027 299° West 277 319 8,900 -1,440 Descending FlightAware ADS-B (KPAE)
06:54PM 47.4246 -122.3160 299° West 272 313 8,700 -2,580 Descending FlightAware ADS-B
06:54PM 47.4318 -122.3360 298° West 271 312 8,100 -3,000 Descending FlightAware ADS-B
06:54PM 47.4380 -122.3536 297° West 268 308 7,500 -3,240 Descending FlightAware ADS-B (KPAE)
06:54PM 47.4406 -122.3610 297° West 267 307 7,300 -2,820 Descending FlightAware ADS-B
06:54PM 47.4460 -122.3760 298° West 263 303 6,900 -2,160 Descending FlightAware ADS-B
06:54PM 47.4485 -122.3830 301° West 261 300 6,800 -2,580 Descending FlightAware ADS-B
06:54PM 47.4505 -122.3870 305° West 260 299 6,600 -3,000 Descending FlightAware ADS-B (KPAE)
06:54PM 47.4512 -122.3880 306° West 260 299 6,600 -3,000 Level FlightAware ADS-B
06:55PM 47.4535 -122.3920 312° West 259 298 6,400 -3,000 Descending FlightAware ADS-B
06:55PM 47.4575 -122.3980 318° Northwest 259 298 6,200 -2,280 Descending FlightAware ADS-B
06:55PM 47.4605 -122.4020 322° Northwest 258 297 6,100 -3,000 Descending FlightAware ADS-B
06:55PM 47.4657 -122.4070 325° Northwest 259 298 5,800 -3,000 Descending FlightAware ADS-B
06:55PM 47.4682 -122.4095 327° Northwest 259 298 5,700 -3,240 Descending FlightAware ADS-B (KPAE)
06:55PM 47.4809 -122.4210 328° Northwest 260 299 5,000 -3,300 Descending FlightAware ADS-B
06:55PM 47.4881 -122.4279 328° Northwest 261 300 4,600 -2,640 Descending FlightAware ADS-B (KPAE)
06:55PM 47.4967 -122.4360 328° Northwest 259 298 4,300 -1,620 Descending FlightAware ADS-B
06:55PM 47.5114 -122.4500 327° Northwest 245 282 4,000 -1,440 Descending FlightAware ADS-B
06:56PM 47.5168 -122.4550 327° Northwest 237 273 3,800 -1,200 Descending FlightAware ADS-B (KPAE)
06:56PM 47.5253 -122.4630 327° Northwest 231 266 3,700 -1,260 Descending FlightAware ADS-B
06:56PM 47.5385 -122.4760 327° Northwest 225 259 3,300 -1,620 Descending FlightAware ADS-B
06:56PM 47.5520 -122.4880 327° Northwest 226 260 2,900 -1,620 Descending FlightAware ADS-B
06:56PM 47.5550 -122.4913 327° Northwest 226 260 2,800 -1,020 Descending FlightAware ADS-B (KPAE)
06:56PM 47.5625 -122.4980 327° Northwest 223 257 2,700 -540 Descending FlightAware ADS-B
06:57PM 47.5750 -122.5100 327° Northwest 212 244 2,600 -300 Descending FlightAware ADS-B
06:57PM 47.5819 -122.5169 329° Northwest 204 235 2,600 -600 Level FlightAware ADS-B (KPAE)
06:57PM 47.5826 -122.5170 329° Northwest 204 235 2,500 -1,020 Descending FlightAware ADS-B
06:57PM 47.5867 -122.5200 334° Northwest 202 232 2,500 -600 Level FlightAware ADS-B
06:57PM 47.5912 -122.5220 348° North 198 228 2,400 -780 Descending FlightAware ADS-B
06:57PM 47.5939 -122.5220 357° North 197 227 2,400 -1,020 Level FlightAware ADS-B
06:57PM 47.5969 -122.5220 North 195 224 2,300 -900 Descending FlightAware ADS-B
06:57PM 47.6003 -122.5200 18° North 194 223 2,300  Level FlightAware ADS-B
06:57PM 47.6027 -122.5190 28° Northeast 192 221 2,300 -720 Level FlightAware ADS-B
06:57PM 47.6065 -122.5140 42° Northeast 188 216 2,200 -720 Descending FlightAware ADS-B
06:57PM 47.6082 -122.5110 47° Northeast 187 215 2,200 -1,020 Level FlightAware ADS-B
06:57PM 47.6097 -122.5080 55° Northeast 185 213 2,100 -1,020 Descending FlightAware ADS-B
06:57PM 47.6112 -122.5040 57° Northeast 183 211 2,100  Level FlightAware ADS-B
06:58PM 47.6016 -122.5196 58° Northeast 182 209 2,100 -600 Level FlightAware ADS-B (KPAE)
06:58PM 47.6155 -122.4940 60° Northeast 180 207 2,000 -420 Descending FlightAware ADS-B
06:58PM 47.6187 -122.4850 62° Northeast 181 208 2,000  Level FlightAware ADS-B
06:58PM 47.6210 -122.4780 64° Northeast 180 207 2,000  Level FlightAware ADS-B
06:58PM 47.6271 -122.4590 64° Northeast 178 205 2,000  Level FlightAware ADS-B
06:59PM 47.6325 -122.4428 64° Northeast 157 181 2,000  Level FlightAware ADS-B (KPAE)
06:59PM 47.6358 -122.4270 86° East 156 180 2,000  Level FlightAware ADS-B
06:59PM 47.6356 -122.4242 98° East 157 181 2,000  Level FlightAware ADS-B (KPAE)
06:59PM 47.6346 -122.4190 105° East 157 181 2,000 -480 Level FlightAware ADS-B
06:59PM 47.6321 -122.4100 115° Southeast 158 182 1,900 -720 Descending FlightAware ADS-B
06:59PM 47.6293 -122.4010 117° Southeast 158 182 1,800 -420 Descending FlightAware ADS-B
06:59PM 47.6273 -122.3960 118° Southeast 156 180 1,800 -720 Level FlightAware ADS-B
06:59PM 47.6241 -122.3875 128° Southeast 156 180 1,600 -960 Descending FlightAware ADS-B (KPAE)
06:59PM 47.6219 -122.3830 125° Southeast 157 181 1,600 -660 Level FlightAware ADS-B
07:00PM 47.6120 -122.3722 148° Southeast 158 182 1,400 -540 Descending FlightAware ADS-B (KPAE)
07:00PM 47.6081 -122.3680 147° Southeast 160 184 1,400 -840 Level FlightAware ADS-B
07:00PM 47.6023 -122.3630 150° Southeast 161 185 1,200 -1,200 Descending FlightAware ADS-B
07:00PM 47.5984 -122.3602 151° Southeast 163 188 1,100 -480 Descending FlightAware ADS-B (KPAE)
07:01PM 47.5800 -122.3453 151° Southeast 158 182 900 -420 Descending Seattle Center
07:01PM 47.5744 -122.3419 158° South 157 181 800 -840 Descending Seattle Center
07:02PM 47.5442 -122.3144 148° Southeast 154 177 100 18,600 Descending Seattle Center
07:03PM 47.5122 -122.2881 151° Southeast 153 176 35,000 34,320 Climbing Seattle Center